sensor_id;sensor_type;location;lat;lon;timestamp;pressure;altitude;pressure_sealevel;temperature;humidity
76940;BME280;65885;55.848;35.916;2023-05-10T00:01:38;100342.44;;;5.59;41.94
76940;BME280;65885;55.848;35.916;2023-05-10T00:04:06;100343.31;;;5.58;43.16
76940;BME280;65885;55.848;35.916;2023-05-10T00:06:33;100346.78;;;5.58;42.69
76940;BME280;65885;55.848;35.916;2023-05-10T00:09:01;100340.75;;;5.56;40.75
76940;BME280;65885;55.848;35.916;2023-05-10T00:11:28;100342.47;;;5.56;39.90
76940;BME280;65885;55.848;35.916;2023-05-10T00:13:56;100330.34;;;5.55;39.28
76940;BME280;65885;55.848;35.916;2023-05-10T00:16:25;100340.75;;;5.56;38.86
76940;BME280;65885;55.848;35.916;2023-05-10T00:18:52;100339.00;;;5.57;42.02
76940;BME280;65885;55.848;35.916;2023-05-10T00:21:20;100343.34;;;5.56;43.95
76940;BME280;65885;55.848;35.916;2023-05-10T00:23:47;100336.44;;;5.54;42.78
76940;BME280;65885;55.848;35.916;2023-05-10T00:26:15;100343.38;;;5.55;44.85
76940;BME280;65885;55.848;35.916;2023-05-10T00:28:43;100352.03;;;5.54;46.40
76940;BME280;65885;55.848;35.916;2023-05-10T00:31:10;100351.19;;;5.53;46.96
76940;BME280;65885;55.848;35.916;2023-05-10T00:33:39;100346.00;;;5.52;47.98
76940;BME280;65885;55.848;35.916;2023-05-10T00:36:07;100353.81;;;5.52;46.84
76940;BME280;65885;55.848;35.916;2023-05-10T00:38:34;100352.03;;;5.54;48.69
76940;BME280;65885;55.848;35.916;2023-05-10T00:41:02;100352.91;;;5.51;47.68
76940;BME280;65885;55.848;35.916;2023-05-10T00:43:30;100352.91;;;5.51;45.25
76940;BME280;65885;55.848;35.916;2023-05-10T00:45:57;100352.06;;;5.52;42.92
76940;BME280;65885;55.848;35.916;2023-05-10T00:48:26;100352.91;;;5.54;42.33
76940;BME280;65885;55.848;35.916;2023-05-10T00:50:55;100345.94;;;5.56;42.81
76940;BME280;65885;55.848;35.916;2023-05-10T00:53:22;100339.00;;;5.57;43.59
76940;BME280;65885;55.848;35.916;2023-05-10T00:55:50;100348.53;;;5.56;44.16
76940;BME280;65885;55.848;35.916;2023-05-10T00:58:18;100353.75;;;5.56;43.50
76940;BME280;65885;55.848;35.916;2023-05-10T01:00:46;100348.59;;;5.53;42.25
76940;BME280;65885;55.848;35.916;2023-05-10T01:03:14;100348.59;;;5.53;41.75
76940;BME280;65885;55.848;35.916;2023-05-10T01:05:41;100342.50;;;5.53;40.67
76940;BME280;65885;55.848;35.916;2023-05-10T01:08:10;100344.25;;;5.51;40.76
76940;BME280;65885;55.848;35.916;2023-05-10T01:10:38;100340.78;;;5.50;41.68
76940;BME280;65885;55.848;35.916;2023-05-10T01:13:06;100344.25;;;5.51;43.15
76940;BME280;65885;55.848;35.916;2023-05-10T01:15:33;100339.94;;;5.48;42.13
76940;BME280;65885;55.848;35.916;2023-05-10T01:18:02;100339.06;;;5.48;41.48
76940;BME280;65885;55.848;35.916;2023-05-10T01:20:35;100337.34;;;5.47;41.93
76940;BME280;65885;55.848;35.916;2023-05-10T01:26:13;100338.25;;;5.44;46.04
76940;BME280;65885;55.848;35.916;2023-05-10T01:32:05;100338.25;;;5.40;48.00
76940;BME280;65885;55.848;35.916;2023-05-10T01:34:42;100346.06;;;5.38;46.56
76940;BME280;65885;55.848;35.916;2023-05-10T01:37:16;100337.41;;;5.38;45.75
76940;BME280;65885;55.848;35.916;2023-05-10T01:39:46;100335.66;;;5.38;44.87
76940;BME280;65885;55.848;35.916;2023-05-10T01:42:19;100333.94;;;5.39;45.84
76940;BME280;65885;55.848;35.916;2023-05-10T01:44:54;100343.47;;;5.40;47.67
76940;BME280;65885;55.848;35.916;2023-05-10T01:47:29;100338.25;;;5.40;45.90
76940;BME280;65885;55.848;35.916;2023-05-10T01:50:00;100330.44;;;5.40;44.07
76940;BME280;65885;55.848;35.916;2023-05-10T01:52:33;100337.38;;;5.41;43.23
76940;BME280;65885;55.848;35.916;2023-05-10T01:55:08;100326.97;;;5.42;43.04
76940;BME280;65885;55.848;35.916;2023-05-10T01:57:37;100327.84;;;5.44;43.15
76940;BME280;65885;55.848;35.916;2023-05-10T02:00:08;100329.53;;;5.44;43.51
76940;BME280;65885;55.848;35.916;2023-05-10T02:02:40;100329.56;;;5.45;44.52
76940;BME280;65885;55.848;35.916;2023-05-10T02:05:09;100335.63;;;5.46;45.65
76940;BME280;65885;55.848;35.916;2023-05-10T02:07:39;100333.03;;;5.44;44.72
76940;BME280;65885;55.848;35.916;2023-05-10T02:10:09;100336.50;;;5.45;46.36
76940;BME280;65885;55.848;35.916;2023-05-10T02:12:41;100341.69;;;5.45;48.26
76940;BME280;65885;55.848;35.916;2023-05-10T02:15:11;100345.16;;;5.42;50.90
76940;BME280;65885;55.848;35.916;2023-05-10T02:17:42;100340.84;;;5.41;51.99
76940;BME280;65885;55.848;35.916;2023-05-10T02:20:11;100334.78;;;5.41;51.25
76940;BME280;65885;55.848;35.916;2023-05-10T02:22:41;100339.09;;;5.42;49.40
76940;BME280;65885;55.848;35.916;2023-05-10T02:25:11;100339.97;;;5.42;46.72
76940;BME280;65885;55.848;35.916;2023-05-10T02:27:41;100334.75;;;5.45;45.28
76940;BME280;65885;55.848;35.916;2023-05-10T02:30:10;100332.09;;;5.50;44.93
76940;BME280;65885;55.848;35.916;2023-05-10T02:32:39;100335.59;;;5.52;44.73
76940;BME280;65885;55.848;35.916;2023-05-10T02:35:08;100333.81;;;5.55;44.98
76940;BME280;65885;55.848;35.916;2023-05-10T02:37:37;100331.19;;;5.58;45.14
76940;BME280;65885;55.848;35.916;2023-05-10T02:40:06;100331.19;;;5.62;47.61
76940;BME280;65885;55.848;35.916;2023-05-10T02:42:37;100326.81;;;5.64;46.83
76940;BME280;65885;55.848;35.916;2023-05-10T02:45:08;100328.53;;;5.65;45.85
76940;BME280;65885;55.848;35.916;2023-05-10T02:47:38;100329.41;;;5.68;44.07
76940;BME280;65885;55.848;35.916;2023-05-10T02:50:08;100327.63;;;5.72;43.69
76940;BME280;65885;55.848;35.916;2023-05-10T02:52:39;100334.56;;;5.76;44.27
76940;BME280;65885;55.848;35.916;2023-05-10T02:55:09;100320.63;;;5.80;44.14
76940;BME280;65885;55.848;35.916;2023-05-10T02:57:43;100331.88;;;5.85;46.05
76940;BME280;65885;55.848;35.916;2023-05-10T03:00:11;100325.75;;;5.89;45.92
76940;BME280;65885;55.848;35.916;2023-05-10T03:02:39;100324.88;;;5.93;44.01
76940;BME280;65885;55.848;35.916;2023-05-10T03:05:08;100324.84;;;5.99;44.18
76940;BME280;65885;55.848;35.916;2023-05-10T03:07:35;100322.19;;;6.05;43.62
76940;BME280;65885;55.848;35.916;2023-05-10T03:10:04;100327.31;;;6.11;44.65
76940;BME280;65885;55.848;35.916;2023-05-10T03:12:41;100327.28;;;6.16;45.81
76940;BME280;65885;55.848;35.916;2023-05-10T03:15:21;100328.06;;;6.24;47.11
76940;BME280;65885;55.848;35.916;2023-05-10T03:17:55;100328.03;;;6.30;47.38
76940;BME280;65885;55.848;35.916;2023-05-10T03:20:26;100328.84;;;6.37;46.99
76940;BME280;65885;55.848;35.916;2023-05-10T03:23:02;100325.28;;;6.44;46.08
76940;BME280;65885;55.848;35.916;2023-05-10T03:25:31;100328.69;;;6.52;44.65
76940;BME280;65885;55.848;35.916;2023-05-10T03:28:01;100316.41;;;6.60;44.31
76940;BME280;65885;55.848;35.916;2023-05-10T03:30:29;100317.19;;;6.68;43.78
76940;BME280;65885;55.848;35.916;2023-05-10T03:32:57;100318.81;;;6.79;46.89
76940;BME280;65885;55.848;35.916;2023-05-10T03:35:26;100318.72;;;6.88;47.62
76940;BME280;65885;55.848;35.916;2023-05-10T03:37:54;100320.31;;;6.98;48.26
76940;BME280;65885;55.848;35.916;2023-05-10T03:40:21;100320.19;;;7.07;47.13
76940;BME280;65885;55.848;35.916;2023-05-10T03:42:49;100313.97;;;7.17;45.11
76940;BME280;65885;55.848;35.916;2023-05-10T03:45:16;100313.81;;;7.30;44.40
76940;BME280;65885;55.848;35.916;2023-05-10T03:47:44;100311.03;;;7.42;44.34
76940;BME280;65885;55.848;35.916;2023-05-10T03:50:11;100307.31;;;7.55;45.10
76940;BME280;65885;55.848;35.916;2023-05-10T03:52:40;100311.47;;;7.68;44.57
76940;BME280;65885;55.848;35.916;2023-05-10T03:55:08;100311.22;;;7.84;45.66
76940;BME280;65885;55.848;35.916;2023-05-10T03:57:36;100305.81;;;7.96;45.94
76940;BME280;65885;55.848;35.916;2023-05-10T04:00:04;100306.47;;;8.09;46.09
76940;BME280;65885;55.848;35.916;2023-05-10T04:02:32;100308.00;;;8.20;45.50
76940;BME280;65885;55.848;35.916;2023-05-10T04:05:00;100305.16;;;8.34;46.10
76940;BME280;65885;55.848;35.916;2023-05-10T04:07:29;100300.56;;;8.48;45.62
76940;BME280;65885;55.848;35.916;2023-05-10T04:09:58;100296.81;;;8.61;46.34
76940;BME280;65885;55.848;35.916;2023-05-10T04:12:25;100306.09;;;8.76;45.60
76940;BME280;65885;55.848;35.916;2023-05-10T04:14:53;100298.81;;;8.90;45.91
76940;BME280;65885;55.848;35.916;2023-05-10T04:17:20;100303.72;;;9.06;45.09
76940;BME280;65885;55.848;35.916;2023-05-10T04:19:47;100293.81;;;9.20;45.23
76940;BME280;65885;55.848;35.916;2023-05-10T04:22:15;100299.56;;;9.37;45.72
76940;BME280;65885;55.848;35.916;2023-05-10T04:24:43;100301.84;;;9.51;45.37
76940;BME280;65885;55.848;35.916;2023-05-10T04:27:12;100299.72;;;9.67;45.29
76940;BME280;65885;55.848;35.916;2023-05-10T04:29:39;100304.59;;;9.82;45.18
76940;BME280;65885;55.848;35.916;2023-05-10T04:32:07;100300.72;;;9.98;44.91
76940;BME280;65885;55.848;35.916;2023-05-10T04:34:36;100308.16;;;10.15;44.47
76940;BME280;65885;55.848;35.916;2023-05-10T04:37:03;100298.16;;;10.31;44.45
76940;BME280;65885;55.848;35.916;2023-05-10T04:39:31;100301.22;;;10.47;44.15
76940;BME280;65885;55.848;35.916;2023-05-10T04:41:58;100302.56;;;10.62;43.75
76940;BME280;65885;55.848;35.916;2023-05-10T04:44:27;100297.78;;;10.76;43.64
76940;BME280;65885;55.848;35.916;2023-05-10T04:46:55;100298.22;;;10.92;43.40
76940;BME280;65885;55.848;35.916;2023-05-10T04:49:22;100297.75;;;11.07;43.11
76940;BME280;65885;55.848;35.916;2023-05-10T04:51:50;100290.34;;;11.21;42.99
76940;BME280;65885;55.848;35.916;2023-05-10T04:54:17;100287.22;;;11.36;42.51
76940;BME280;65885;55.848;35.916;2023-05-10T04:56:45;100292.06;;;11.50;41.74
76940;BME280;65885;55.848;35.916;2023-05-10T04:59:12;100288.09;;;11.65;41.18
76940;BME280;65885;55.848;35.916;2023-05-10T05:01:41;100294.63;;;11.80;40.55
76940;BME280;65885;55.848;35.916;2023-05-10T05:04:08;100289.81;;;11.92;39.93
76940;BME280;65885;55.848;35.916;2023-05-10T05:06:36;100286.75;;;12.06;39.60
76940;BME280;65885;55.848;35.916;2023-05-10T05:09:03;100285.47;;;12.18;38.91
76940;BME280;65885;55.848;35.916;2023-05-10T05:11:30;100285.94;;;12.29;39.12
76940;BME280;65885;55.848;35.916;2023-05-10T05:13:58;100283.84;;;12.39;38.87
76940;BME280;65885;55.848;35.916;2023-05-10T05:16:26;100285.13;;;12.52;38.70
76940;BME280;65885;55.848;35.916;2023-05-10T05:18:55;100277.72;;;12.63;38.28
76940;BME280;65885;55.848;35.916;2023-05-10T05:21:22;100277.31;;;12.74;38.37
76940;BME280;65885;55.848;35.916;2023-05-10T05:23:50;100281.22;;;12.87;38.53
76940;BME280;65885;55.848;35.916;2023-05-10T05:26:18;100278.19;;;12.98;38.18
76940;BME280;65885;55.848;35.916;2023-05-10T05:28:45;100277.72;;;13.10;37.89
76940;BME280;65885;55.848;35.916;2023-05-10T05:31:14;100275.53;;;13.21;37.84
76940;BME280;65885;55.848;35.916;2023-05-10T05:33:41;100280.47;;;13.30;37.28
76940;BME280;65885;55.848;35.916;2023-05-10T05:36:10;100269.63;;;13.38;36.96
76940;BME280;65885;55.848;35.916;2023-05-10T05:38:38;100271.16;;;13.44;36.46
76940;BME280;65885;55.848;35.916;2023-05-10T05:41:05;100268.28;;;13.50;35.91
76940;BME280;65885;55.848;35.916;2023-05-10T05:43:33;100272.53;;;13.54;35.93
76940;BME280;65885;55.848;35.916;2023-05-10T05:46:00;100270.53;;;13.59;35.69
76940;BME280;65885;55.848;35.916;2023-05-10T05:48:29;100266.00;;;13.63;35.59
76940;BME280;65885;55.848;35.916;2023-05-10T05:50:57;100262.22;;;13.70;35.51
76940;BME280;65885;55.848;35.916;2023-05-10T05:53:26;100261.09;;;13.75;35.27
76940;BME280;65885;55.848;35.916;2023-05-10T05:55:54;100260.72;;;13.84;35.34
76940;BME280;65885;55.848;35.916;2023-05-10T05:58:21;100253.97;;;13.98;35.65
76940;BME280;65885;55.848;35.916;2023-05-10T06:00:49;100261.25;;;14.13;35.68
76940;BME280;65885;55.848;35.916;2023-05-10T06:03:17;100251.63;;;14.32;36.17
76940;BME280;65885;55.848;35.916;2023-05-10T06:05:45;100254.13;;;14.56;36.21
76940;BME280;65885;55.848;35.916;2023-05-10T06:08:12;100247.69;;;14.82;35.46
76940;BME280;65885;55.848;35.916;2023-05-10T06:10:41;100243.81;;;15.08;34.98
76940;BME280;65885;55.848;35.916;2023-05-10T06:13:08;100240.00;;;15.32;34.69
76940;BME280;65885;55.848;35.916;2023-05-10T06:15:36;100241.41;;;15.58;34.35
76940;BME280;65885;55.848;35.916;2023-05-10T06:18:04;100236.72;;;15.82;34.40
76940;BME280;65885;55.848;35.916;2023-05-10T06:20:31;100234.50;;;16.07;34.06
76940;BME280;65885;55.848;35.916;2023-05-10T06:22:59;100235.81;;;16.33;34.03
76940;BME280;65885;55.848;35.916;2023-05-10T06:25:26;100229.03;;;16.61;33.92
76940;BME280;65885;55.848;35.916;2023-05-10T06:27:55;100233.75;;;16.89;33.33
76940;BME280;65885;55.848;35.916;2023-05-10T06:30:24;100232.28;;;17.15;33.41
76940;BME280;65885;55.848;35.916;2023-05-10T06:32:54;100222.88;;;17.41;32.86
76940;BME280;65885;55.848;35.916;2023-05-10T06:35:22;100222.41;;;17.64;32.42
76940;BME280;65885;55.848;35.916;2023-05-10T06:37:49;100226.22;;;17.90;32.03
76940;BME280;65885;55.848;35.916;2023-05-10T06:40:17;100224.56;;;18.18;32.48
76940;BME280;65885;55.848;35.916;2023-05-10T06:42:46;100226.41;;;18.46;32.25
76940;BME280;65885;55.848;35.916;2023-05-10T06:45:15;100221.31;;;18.71;31.08
76940;BME280;65885;55.848;35.916;2023-05-10T06:47:43;100216.84;;;18.86;28.92
76940;BME280;65885;55.848;35.916;2023-05-10T06:50:10;100215.97;;;19.00;28.16
76940;BME280;65885;55.848;35.916;2023-05-10T06:52:38;100216.91;;;19.13;29.13
76940;BME280;65885;55.848;35.916;2023-05-10T06:55:06;100207.81;;;19.30;29.12
76940;BME280;65885;55.848;35.916;2023-05-10T06:57:34;100210.16;;;19.34;28.07
76940;BME280;65885;55.848;35.916;2023-05-10T07:00:02;100220.22;;;19.44;27.21
76940;BME280;65885;55.848;35.916;2023-05-10T07:03:24;100218.53;;;19.55;27.78
76940;BME280;65885;55.848;35.916;2023-05-10T07:09:35;100206.72;;;19.74;26.17
76940;BME280;65885;55.848;35.916;2023-05-10T07:12:04;100209.06;;;19.78;26.16
76940;BME280;65885;55.848;35.916;2023-05-10T07:14:32;100208.66;;;19.84;26.11
76940;BME280;65885;55.848;35.916;2023-05-10T07:16:59;100215.50;;;19.88;25.70
76940;BME280;65885;55.848;35.916;2023-05-10T07:19:28;100204.94;;;20.00;25.85
76940;BME280;65885;55.848;35.916;2023-05-10T07:21:58;100195.47;;;20.08;23.35
76940;BME280;65885;55.848;35.916;2023-05-10T07:24:25;100192.69;;;20.10;24.07
76940;BME280;65885;55.848;35.916;2023-05-10T07:26:53;100199.97;;;20.33;25.90
76940;BME280;65885;55.848;35.916;2023-05-10T07:29:20;100198.69;;;20.64;26.33
76940;BME280;65885;55.848;35.916;2023-05-10T07:31:47;100191.03;;;20.96;26.05
76940;BME280;65885;55.848;35.916;2023-05-10T07:34:15;100190.53;;;21.28;25.61
76940;BME280;65885;55.848;35.916;2023-05-10T07:36:44;100193.06;;;21.53;24.59
76940;BME280;65885;55.848;35.916;2023-05-10T07:39:12;100191.91;;;21.69;23.97
76940;BME280;65885;55.848;35.916;2023-05-10T07:41:40;100196.78;;;21.75;23.25
76940;BME280;65885;55.848;35.916;2023-05-10T07:44:07;100189.75;;;21.74;23.72
76940;BME280;65885;55.848;35.916;2023-05-10T07:46:35;100182.31;;;21.66;23.54
76940;BME280;65885;55.848;35.916;2023-05-10T07:49:03;100186.81;;;21.66;23.58
76940;BME280;65885;55.848;35.916;2023-05-10T07:51:31;100189.81;;;21.61;23.81
76940;BME280;65885;55.848;35.916;2023-05-10T07:53:59;100191.88;;;21.57;23.16
76940;BME280;65885;55.848;35.916;2023-05-10T07:56:29;100184.78;;;21.45;22.08
76940;BME280;65885;55.848;35.916;2023-05-10T07:58:58;100185.72;;;21.33;23.27
76940;BME280;65885;55.848;35.916;2023-05-10T08:01:26;100186.38;;;21.24;23.16
76940;BME280;65885;55.848;35.916;2023-05-10T08:03:54;100185.31;;;21.14;23.13
76940;BME280;65885;55.848;35.916;2023-05-10T08:06:21;100182.25;;;21.07;23.62
76940;BME280;65885;55.848;35.916;2023-05-10T08:08:49;100178.25;;;21.01;23.72
76940;BME280;65885;55.848;35.916;2023-05-10T08:11:18;100176.84;;;20.96;23.36
76940;BME280;65885;55.848;35.916;2023-05-10T08:13:46;100173.22;;;20.97;23.84
76940;BME280;65885;55.848;35.916;2023-05-10T08:16:14;100166.81;;;20.99;23.71
76940;BME280;65885;55.848;35.916;2023-05-10T08:18:41;100171.09;;;21.02;23.52
76940;BME280;65885;55.848;35.916;2023-05-10T08:21:09;100167.31;;;21.04;23.84
76940;BME280;65885;55.848;35.916;2023-05-10T08:23:37;100162.59;;;21.08;23.81
76940;BME280;65885;55.848;35.916;2023-05-10T08:26:04;100156.22;;;21.11;23.61
76940;BME280;65885;55.848;35.916;2023-05-10T08:28:33;100151.59;;;21.13;23.68
76940;BME280;65885;55.848;35.916;2023-05-10T08:31:00;100150.88;;;21.11;23.34
76940;BME280;65885;55.848;35.916;2023-05-10T08:33:28;100154.97;;;21.03;22.64
76940;BME280;65885;55.848;35.916;2023-05-10T08:35:56;100155.84;;;20.91;22.29
76940;BME280;65885;55.848;35.916;2023-05-10T08:38:23;100150.88;;;20.74;22.43
76940;BME280;65885;55.848;35.916;2023-05-10T08:40:54;100149.75;;;20.53;22.25
76940;BME280;65885;55.848;35.916;2023-05-10T08:43:27;100141.56;;;20.30;22.64
76940;BME280;65885;55.848;35.916;2023-05-10T08:45:56;100137.53;;;20.12;22.88
76940;BME280;65885;55.848;35.916;2023-05-10T08:48:29;100147.63;;;19.94;23.15
76940;BME280;65885;55.848;35.916;2023-05-10T08:50:58;100146.00;;;19.79;23.32
76940;BME280;65885;55.848;35.916;2023-05-10T08:53:29;100151.13;;;19.69;23.42
76940;BME280;65885;55.848;35.916;2023-05-10T08:55:58;100143.53;;;19.63;23.56
76940;BME280;65885;55.848;35.916;2023-05-10T08:58:25;100138.03;;;19.66;24.04
76940;BME280;65885;55.848;35.916;2023-05-10T09:00:53;100138.56;;;19.71;24.04
76940;BME280;65885;55.848;35.916;2023-05-10T09:03:22;100134.75;;;19.75;24.27
76940;BME280;65885;55.848;35.916;2023-05-10T09:05:50;100135.28;;;19.80;23.43
76940;BME280;65885;55.848;35.916;2023-05-10T09:08:18;100128.88;;;19.83;23.69
76940;BME280;65885;55.848;35.916;2023-05-10T09:10:48;100124.72;;;19.91;23.65
76940;BME280;65885;55.848;35.916;2023-05-10T09:13:15;100119.72;;;20.00;22.61
76940;BME280;65885;55.848;35.916;2023-05-10T09:15:44;100112.72;;;20.11;24.00
76940;BME280;65885;55.848;35.916;2023-05-10T09:18:12;100111.63;;;20.27;23.73
76940;BME280;65885;55.848;35.916;2023-05-10T09:20:41;100116.81;;;20.41;23.99
76940;BME280;65885;55.848;35.916;2023-05-10T09:23:09;100114.38;;;20.50;23.41
76940;BME280;65885;55.848;35.916;2023-05-10T09:25:36;100111.78;;;20.62;23.73
76940;BME280;65885;55.848;35.916;2023-05-10T09:28:08;100112.91;;;20.70;23.47
76940;BME280;65885;55.848;35.916;2023-05-10T09:30:36;100111.41;;;20.79;23.39
76940;BME280;65885;55.848;35.916;2023-05-10T09:33:04;100109.25;;;20.84;23.22
76940;BME280;65885;55.848;35.916;2023-05-10T09:35:33;100104.56;;;20.88;23.48
76940;BME280;65885;55.848;35.916;2023-05-10T09:38:03;100103.34;;;20.92;23.32
76940;BME280;65885;55.848;35.916;2023-05-10T09:40:30;100103.25;;;20.93;23.49
76940;BME280;65885;55.848;35.916;2023-05-10T09:42:59;100096.47;;;21.00;23.65
76940;BME280;65885;55.848;35.916;2023-05-10T09:45:28;100096.16;;;21.05;23.41
76940;BME280;65885;55.848;35.916;2023-05-10T09:47:57;100091.47;;;21.09;22.88
76940;BME280;65885;55.848;35.916;2023-05-10T09:50:25;100098.50;;;21.10;22.89
76940;BME280;65885;55.848;35.916;2023-05-10T09:52:54;100089.28;;;21.14;23.35
76940;BME280;65885;55.848;35.916;2023-05-10T09:55:38;100091.16;;;21.24;23.66
76940;BME280;65885;55.848;35.916;2023-05-10T09:58:06;100090.38;;;21.35;22.87
76940;BME280;65885;55.848;35.916;2023-05-10T10:00:37;100084.50;;;21.30;21.15
76940;BME280;65885;55.848;35.916;2023-05-10T10:03:06;100084.19;;;21.35;22.25
76940;BME280;65885;55.848;35.916;2023-05-10T10:05:34;100088.22;;;21.40;22.36
76940;BME280;65885;55.848;35.916;2023-05-10T10:08:04;100086.25;;;21.42;21.91
76940;BME280;65885;55.848;35.916;2023-05-10T10:10:33;100075.84;;;21.39;21.78
76940;BME280;65885;55.848;35.916;2023-05-10T10:13:02;100080.88;;;21.31;21.84
76940;BME280;65885;55.848;35.916;2023-05-10T10:15:30;100081.50;;;21.11;21.50
76940;BME280;65885;55.848;35.916;2023-05-10T10:17:59;100077.66;;;20.91;21.93
76940;BME280;65885;55.848;35.916;2023-05-10T10:20:27;100074.09;;;20.79;22.64
76940;BME280;65885;55.848;35.916;2023-05-10T10:22:55;100078.38;;;20.69;22.26
76940;BME280;65885;55.848;35.916;2023-05-10T10:25:22;100076.63;;;20.57;22.27
76940;BME280;65885;55.848;35.916;2023-05-10T10:28:19;100072.06;;;20.46;22.43
76940;BME280;65885;55.848;35.916;2023-05-10T10:30:50;100075.59;;;20.34;22.24
76940;BME280;65885;55.848;35.916;2023-05-10T10:33:36;100066.88;;;20.19;22.23
76940;BME280;65885;55.848;35.916;2023-05-10T10:36:06;100067.41;;;20.11;23.09
76940;BME280;65885;55.848;35.916;2023-05-10T10:38:38;100075.97;;;20.04;22.97
76940;BME280;65885;55.848;35.916;2023-05-10T10:41:32;100066.69;;;19.97;23.14
76940;BME280;65885;55.848;35.916;2023-05-10T10:44:26;100070.63;;;19.91;23.45
76940;BME280;65885;55.848;35.916;2023-05-10T10:47:22;100059.56;;;19.84;22.64
76940;BME280;65885;55.848;35.916;2023-05-10T10:49:53;100065.53;;;19.75;23.19
76940;BME280;65885;55.848;35.916;2023-05-10T10:52:31;100055.72;;;19.76;23.30
76940;BME280;65885;55.848;35.916;2023-05-10T10:55:02;100050.28;;;19.77;22.84
76940;BME280;65885;55.848;35.916;2023-05-10T10:57:43;100050.72;;;19.84;22.89
76940;BME280;65885;55.848;35.916;2023-05-10T11:00:26;100053.56;;;19.93;23.56
76940;BME280;65885;55.848;35.916;2023-05-10T11:02:56;100048.47;;;20.03;23.25
76940;BME280;65885;55.848;35.916;2023-05-10T11:05:27;100051.44;;;20.11;24.02
76940;BME280;65885;55.848;35.916;2023-05-10T11:08:07;100056.72;;;20.24;23.73
76940;BME280;65885;55.848;35.916;2023-05-10T11:10:36;100055.84;;;20.36;23.99
76940;BME280;65885;55.848;35.916;2023-05-10T11:13:04;100052.66;;;20.44;23.34
76940;BME280;65885;55.848;35.916;2023-05-10T11:15:35;100047.31;;;20.57;23.22
76940;BME280;65885;55.848;35.916;2023-05-10T11:18:17;100040.09;;;20.70;23.19
76940;BME280;65885;55.848;35.916;2023-05-10T11:20:50;100043.56;;;20.83;23.08
76940;BME280;65885;55.848;35.916;2023-05-10T11:23:18;100035.63;;;20.94;22.60
76940;BME280;65885;55.848;35.916;2023-05-10T11:25:48;100033.44;;;20.99;22.39
76940;BME280;65885;55.848;35.916;2023-05-10T11:28:17;100043.03;;;21.02;22.95
76940;BME280;65885;55.848;35.916;2023-05-10T11:30:47;100039.63;;;21.00;23.09
76940;BME280;65885;55.848;35.916;2023-05-10T11:33:16;100038.78;;;20.99;23.20
76940;BME280;65885;55.848;35.916;2023-05-10T11:35:45;100035.88;;;21.02;23.42
76940;BME280;65885;55.848;35.916;2023-05-10T11:38:13;100034.34;;;21.11;22.98
76940;BME280;65885;55.848;35.916;2023-05-10T11:40:41;100026.72;;;21.18;22.88
76940;BME280;65885;55.848;35.916;2023-05-10T11:43:09;100019.44;;;21.20;22.61
76940;BME280;65885;55.848;35.916;2023-05-10T11:45:39;100022.13;;;21.20;22.65
76940;BME280;65885;55.848;35.916;2023-05-10T11:48:08;100016.78;;;21.20;22.36
76940;BME280;65885;55.848;35.916;2023-05-10T11:50:36;100014.72;;;21.23;22.98
76940;BME280;65885;55.848;35.916;2023-05-10T11:53:04;100018.00;;;21.27;23.00
76940;BME280;65885;55.848;35.916;2023-05-10T11:55:33;100015.13;;;21.30;22.52
76940;BME280;65885;55.848;35.916;2023-05-10T11:58:01;100019.41;;;21.32;22.52
76940;BME280;65885;55.848;35.916;2023-05-10T12:00:30;100014.91;;;21.33;22.48
76940;BME280;65885;55.848;35.916;2023-05-10T12:03:00;100017.47;;;21.35;22.80
76940;BME280;65885;55.848;35.916;2023-05-10T12:05:32;100013.09;;;21.33;22.32
76940;BME280;65885;55.848;35.916;2023-05-10T12:08:13;100009.16;;;21.26;22.13
76940;BME280;65885;55.848;35.916;2023-05-10T12:10:41;100012.03;;;21.23;23.11
76940;BME280;65885;55.848;35.916;2023-05-10T12:13:12;100009.50;;;21.22;22.84
76940;BME280;65885;55.848;35.916;2023-05-10T12:15:41;100003.78;;;21.15;22.70
76940;BME280;65885;55.848;35.916;2023-05-10T12:18:09;100007.78;;;21.10;22.70
76940;BME280;65885;55.848;35.916;2023-05-10T12:20:39;100007.28;;;21.04;22.72
76940;BME280;65885;55.848;35.916;2023-05-10T12:23:09;99997.44;;;20.94;23.18
76940;BME280;65885;55.848;35.916;2023-05-10T12:25:37;100006.63;;;20.90;23.56
76940;BME280;65885;55.848;35.916;2023-05-10T12:28:07;100001.41;;;20.88;23.26
76940;BME280;65885;55.848;35.916;2023-05-10T12:30:36;100001.63;;;20.85;23.70
76940;BME280;65885;55.848;35.916;2023-05-10T12:33:08;99992.28;;;20.80;23.20
76940;BME280;65885;55.848;35.916;2023-05-10T12:35:45;99998.41;;;20.69;22.54
76940;BME280;65885;55.848;35.916;2023-05-10T12:38:26;99980.94;;;20.65;23.09
76940;BME280;65885;55.848;35.916;2023-05-10T12:40:56;99995.25;;;20.64;23.31
76940;BME280;65885;55.848;35.916;2023-05-10T12:43:23;99987.81;;;20.56;22.45
76940;BME280;65885;55.848;35.916;2023-05-10T12:45:51;99993.34;;;20.53;23.21
76940;BME280;65885;55.848;35.916;2023-05-10T12:48:18;99993.47;;;20.52;23.68
76940;BME280;65885;55.848;35.916;2023-05-10T12:50:47;99994.44;;;20.50;23.29
76940;BME280;65885;55.848;35.916;2023-05-10T12:53:16;99989.97;;;20.51;23.59
76940;BME280;65885;55.848;35.916;2023-05-10T12:55:43;99988.88;;;20.54;23.87
76940;BME280;65885;55.848;35.916;2023-05-10T12:58:11;99989.50;;;20.57;23.54
76940;BME280;65885;55.848;35.916;2023-05-10T13:00:38;99989.28;;;20.60;23.34
76940;BME280;65885;55.848;35.916;2023-05-10T13:03:06;99980.19;;;20.63;23.53
76940;BME280;65885;55.848;35.916;2023-05-10T13:05:35;99979.84;;;20.67;23.37